LSZH/ZRH METAR and TAF weather

Enter ICAO airport designator
Station Type Date Time Source
LSZH METAR 2020/07/11 17:50 UTC NOAA

LSZH 111750Z 08004KT 9999 FEW025 19/13 Q1023 NOSIG


Station Type Date Time Source
LSZH Decoded METAR 2020/07/11 17:50 UTC NOAA

Zurich-Kloten, Switzerland (LSZH) 47-29N 008-32E 432M
Jul 11, 2020 - 01:50 PM EDT / 2020.07.11 1750 UTC
Wind: from the E (080 degrees) at 5 MPH (4 KT):0
Visibility: greater than 7 mile(s):0
Sky conditions: mostly clear
Temperature: 66 F (19 C)
Dew Point: 55 F (13 C)
Relative Humidity: 68%
Pressure (altimeter): 30.21 in. Hg (1023 hPa)
ob: LSZH 111750Z 08004KT 9999 FEW025 19/13 Q1023 NOSIG
cycle: 18

Station Type Date Time Source
LSZH TAF 2020/07/11 18:33 UTC NOAA

TAF LSZH 111725Z 1118/1224 03006KT 9999 FEW025 TX24/1215Z TN10/1204Z
BECMG 1119/1122 CAVOK
BECMG 1207/1209 05010KT
BECMG 1218/1221 08005KT

Example: see airport list